Time;durP1;ratioP1;P1;durP2;ratioP2;P2;SDS_P1;SDS_P2;PMS_P1;PMS_P2;Temp;Humidity;BMP_temperature;BMP_pressure;BME280_temperature;BME280_humidity;BME280_pressure;Samples;Min_cycle;Max_cycle;Signal;HPM_P1;HPM_P2
2022/10/21 00:01:27;;;;;;;2.65;1.90;;;;;;;21.91;60.12;97064.06;10408227;28;20107;-85
2022/10/21 00:06:46;;;;;;;2.97;1.90;;;;;;;21.90;59.87;97079.53;10422900;28;20045;-85
2022/10/21 00:12:05;;;;;;;2.97;2.05;;;;;;;21.89;60.21;97077.16;10386624;28;20046;-85
2022/10/21 00:17:25;;;;;;;3.75;2.10;;;;;;;21.87;60.40;97053.06;10403892;28;20109;-84
2022/10/21 00:22:44;;;;;;;5.28;2.30;;;;;;;21.87;60.08;97055.00;10415388;28;20374;-83
2022/10/21 00:28:04;;;;;;;2.78;2.10;;;;;;;21.85;60.46;97047.19;10413657;28;20095;-84
2022/10/21 00:33:24;;;;;;;1.90;1.80;;;;;;;21.84;60.20;97042.91;10403661;28;20045;-84
2022/10/21 00:38:47;;;;;;;2.45;1.88;;;;;;;21.83;60.05;97049.44;10389713;28;20045;-84
2022/10/21 00:44:10;;;;;;;2.80;1.90;;;;;;;21.82;60.16;97050.59;10413381;28;20041;-84
2022/10/21 00:49:43;;;;;;;3.85;2.00;;;;;;;21.79;60.07;97037.69;10400067;28;20054;-84
2022/10/21 00:55:04;;;;;;;2.55;1.85;;;;;;;21.80;60.15;97035.78;10399802;28;20456;-84
2022/10/21 01:00:24;;;;;;;2.35;1.80;;;;;;;21.78;60.27;97022.56;10379334;28;20550;-84
2022/10/21 01:05:43;;;;;;;2.63;1.65;;;;;;;21.77;60.38;97020.94;10418937;28;20108;-84
2022/10/21 01:11:04;;;;;;;2.25;1.80;;;;;;;21.75;59.98;97006.94;10408654;28;20493;-84
2022/10/21 01:16:56;;;;;;;2.40;1.90;;;;;;;21.75;60.13;97004.22;10391873;28;20052;-84
2022/10/21 01:22:28;;;;;;;2.05;1.60;;;;;;;21.73;59.95;96988.28;10388788;28;20057;-84
2022/10/21 01:28:32;;;;;;;2.15;1.85;;;;;;;21.72;60.07;96994.06;10399956;28;20056;-84
2022/10/21 01:34:06;;;;;;;2.20;1.77;;;;;;;21.70;59.98;96994.38;10347639;28;20497;-84
2022/10/21 01:39:35;;;;;;;2.00;1.80;;;;;;;21.69;60.16;97013.69;10398208;28;20087;-84
2022/10/21 01:45:09;;;;;;;1.95;1.52;;;;;;;21.68;60.05;97014.84;10411547;28;20040;-84
2022/10/21 01:50:32;;;;;;;1.83;1.73;;;;;;;21.67;60.21;97015.94;10405104;28;20041;-83
2022/10/21 01:55:52;;;;;;;2.15;1.70;;;;;;;21.67;60.26;97021.38;10397406;28;20542;-84
2022/10/21 02:01:13;;;;;;;2.80;1.80;;;;;;;21.64;60.34;97006.56;10408036;28;20064;-84
2022/10/21 02:06:32;;;;;;;2.15;1.80;;;;;;;21.64;60.12;96989.47;10410846;28;20048;-84
2022/10/21 02:11:55;;;;;;;1.88;1.65;;;;;;;21.62;60.54;96967.34;10397083;28;20432;-84
2022/10/21 02:17:17;;;;;;;2.28;1.90;;;;;;;21.61;60.27;96968.47;10410703;28;20041;-84
2022/10/21 02:22:38;;;;;;;2.15;1.88;;;;;;;21.60;60.31;96981.25;10412551;28;20049;-84
2022/10/21 02:27:58;;;;;;;2.00;1.65;;;;;;;21.58;60.28;96996.25;10417195;28;20045;-84
2022/10/21 02:33:20;;;;;;;2.35;1.75;;;;;;;21.58;60.40;97001.66;10418704;28;20046;-84
2022/10/21 02:38:53;;;;;;;1.77;1.65;;;;;;;21.56;60.12;96988.47;10413325;28;20046;-84
2022/10/21 02:44:12;;;;;;;2.13;1.70;;;;;;;21.56;60.24;96955.13;10417585;28;20048;-84
2022/10/21 02:49:32;;;;;;;2.17;1.60;;;;;;;21.55;60.31;96958.97;10437330;28;20045;-84
2022/10/21 02:54:51;;;;;;;2.00;1.80;;;;;;;21.53;60.63;96941.09;10409059;28;20041;-84
2022/10/21 03:00:11;;;;;;;2.10;1.67;;;;;;;21.52;60.37;96922.47;10402421;28;20038;-83
2022/10/21 03:05:30;;;;;;;1.80;1.60;;;;;;;21.51;60.57;96902.69;10394354;28;20038;-84
2022/10/21 03:10:50;;;;;;;2.03;1.77;;;;;;;21.49;60.53;96923.94;10386673;28;20048;-84
2022/10/21 03:16:09;;;;;;;1.80;1.50;;;;;;;21.47;60.48;96914.56;10389523;28;20037;-83
2022/10/21 03:21:28;;;;;;;2.08;1.58;;;;;;;21.46;60.54;96918.38;10413458;28;20038;-84
2022/10/21 03:26:48;;;;;;;1.92;1.70;;;;;;;21.43;60.50;96903.59;10402530;28;20037;-84
2022/10/21 03:32:07;;;;;;;1.83;1.50;;;;;;;21.43;60.73;96892.75;10416282;28;20048;-84
2022/10/21 03:37:26;;;;;;;1.80;1.70;;;;;;;21.42;60.46;96895.75;10400143;28;20037;-84
2022/10/21 03:42:45;;;;;;;2.30;1.80;;;;;;;21.40;60.54;96865.47;10418212;28;20053;-84
2022/10/21 03:48:05;;;;;;;2.42;1.67;;;;;;;21.39;60.49;96851.16;10417721;28;20503;-84
2022/10/21 03:53:24;;;;;;;1.40;1.30;;;;;;;21.38;60.59;96824.38;10389910;28;20049;-84
2022/10/21 03:58:44;;;;;;;2.22;1.80;;;;;;;21.37;60.73;96787.59;10390608;28;20044;-84
2022/10/21 04:04:03;;;;;;;1.50;1.40;;;;;;;21.36;60.56;96781.34;10420265;28;20103;-84
2022/10/21 04:09:23;;;;;;;1.55;1.45;;;;;;;21.34;60.51;96753.81;10394337;28;20056;-84
2022/10/21 04:14:42;;;;;;;2.00;1.42;;;;;;;21.34;60.57;96745.66;10410971;28;20045;-83
2022/10/21 04:20:02;;;;;;;2.85;1.80;;;;;;;21.32;60.45;96751.41;10410405;28;20044;-83
2022/10/21 04:25:21;;;;;;;3.45;1.70;;;;;;;21.32;60.73;96747.94;10399306;28;20044;-82
2022/10/21 04:30:41;;;;;;;1.70;1.40;;;;;;;21.31;60.63;96743.66;10428952;28;20050;-82
2022/10/21 04:36:00;;;;;;;1.75;1.60;;;;;;;21.31;60.76;96759.91;10414065;28;20049;-82
2022/10/21 04:41:19;;;;;;;1.75;1.65;;;;;;;21.29;60.73;96779.22;10382542;28;20057;-81
2022/10/21 04:46:39;;;;;;;1.73;1.50;;;;;;;21.28;60.83;96780.31;10385701;28;20517;-81
2022/10/21 04:51:58;;;;;;;3.08;1.70;;;;;;;21.26;60.71;96771.75;10396479;28;20045;-82
2022/10/21 04:57:19;;;;;;;2.17;1.67;;;;;;;21.27;61.24;96737.31;10392065;28;20049;-83
2022/10/21 05:02:38;;;;;;;6.85;5.45;;;;;;;21.02;51.27;96744.59;10428695;28;20041;-83
2022/10/21 05:07:58;;;;;;;7.18;6.47;;;;;;;21.02;51.27;96744.59;10406476;28;20060;-83
2022/10/21 05:13:17;;;;;;;13.15;4.82;;;;;;;21.02;51.27;96744.59;10372374;28;20111;-82
2022/10/21 05:18:36;;;;;;;8.57;4.25;;;;;;;20.51;54.52;96734.69;10431211;28;20408;-82
2022/10/21 05:23:55;;;;;;;7.75;3.80;;;;;;;20.69;54.35;96729.94;10385486;28;20048;-82
2022/10/21 05:29:15;;;;;;;10.00;4.10;;;;;;;20.78;54.18;96721.75;10412652;28;20063;-81
2022/10/21 05:34:34;;;;;;;7.97;4.50;;;;;;;20.82;54.36;96735.41;10409562;28;20041;-81
2022/10/21 05:39:54;;;;;;;5.65;3.80;;;;;;;20.82;54.36;96735.41;10389419;28;20475;-83
2022/10/21 05:45:13;;;;;;;7.28;3.63;;;;;;;20.86;54.55;96733.63;10398126;28;20045;-82
2022/10/21 05:50:33;;;;;;;6.85;5.50;;;;;;;20.83;51.57;96720.75;10388132;28;20053;-83
2022/10/21 05:55:57;;;;;;;7.63;6.82;;;;;;;20.83;51.57;96720.75;10411790;28;20481;-83
2022/10/21 06:01:17;;;;;;;7.13;5.20;;;;;;;19.53;47.49;96751.06;10429984;28;20040;-82
2022/10/21 06:06:37;;;;;;;5.40;4.15;;;;;;;19.53;47.49;96751.06;10424765;28;20112;-82
2022/10/21 06:11:56;;;;;;;5.22;3.88;;;;;;;20.19;51.77;96744.34;10399792;28;20511;-83
2022/10/21 06:17:16;;;;;;;4.82;3.50;;;;;;;20.34;51.91;96741.03;10408867;28;20087;-82
2022/10/21 06:22:35;;;;;;;4.55;3.45;;;;;;;20.43;52.16;96759.13;10390822;28;20063;-82
2022/10/21 06:27:54;;;;;;;6.25;3.65;;;;;;;20.48;52.49;96764.34;10387516;28;20393;-82
2022/10/21 06:33:14;;;;;;;4.63;3.50;;;;;;;20.51;52.91;96739.31;10418520;28;20096;-83
2022/10/21 06:38:33;;;;;;;3.85;3.30;;;;;;;20.52;53.29;96768.78;10390687;28;20041;-82
2022/10/21 06:51:30;;;;;;;6.03;3.75;;;;;;;20.52;53.24;96770.66;10445785;28;20053;-93
2022/10/21 07:04:17;;;;;;;4.60;3.42;;;;;;;20.53;54.01;96777.66;10265093;28;20053;-93
2022/10/21 07:09:57;;;;;;;3.90;3.30;;;;;;;20.51;54.37;96767.16;10406947;28;20060;-92
2022/10/21 07:15:21;;;;;;;7.65;6.85;;;;;;;20.28;47.71;96766.69;10415647;28;20417;-93
2022/10/21 07:20:42;;;;;;;5.25;4.20;;;;;;;20.25;51.51;96782.81;10398847;28;20497;-93
2022/10/21 07:33:02;;;;;;;4.78;3.50;;;;;;;20.38;53.72;96779.03;10453393;28;20071;-92
2022/10/21 07:38:22;;;;;;;5.05;3.53;;;;;;;20.40;53.42;96771.38;10405038;28;20489;-92
2022/10/21 07:43:43;;;;;;;4.28;3.40;;;;;;;20.40;53.65;96776.03;10433082;28;20052;-92
2022/10/21 07:49:17;;;;;;;;;;;;;;;;;;;;;
2022/10/21 07:55:06;;;;;;;3.55;3.25;;;;;;;20.41;54.01;96783.03;10314104;28;20054;-92
2022/10/21 08:07:55;;;;;;;3.60;3.28;;;;;;;20.41;54.01;96766.78;10250735;22;20377;-60
2022/10/21 08:13:05;;;;;;;3.60;3.30;;;;;;;20.40;54.71;96744.34;10380306;28;20104;-58
2022/10/21 08:18:26;;;;;;;3.45;3.08;;;;;;;20.40;54.68;96744.34;10366425;28;20066;-60
2022/10/21 08:23:45;;;;;;;3.67;3.22;;;;;;;20.40;54.88;96738.13;10373477;28;20053;-60
2022/10/21 08:29:05;;;;;;;3.95;3.20;;;;;;;20.39;54.57;96726.53;10370966;28;20458;-59
2022/10/21 08:34:24;;;;;;;4.20;3.30;;;;;;;20.40;54.66;96719.19;10373856;28;20108;-60
2022/10/21 08:39:43;;;;;;;3.38;2.90;;;;;;;20.37;54.75;96717.16;10374294;28;20061;-60
2022/10/21 08:45:07;;;;;;;3.38;3.08;;;;;;;20.38;54.88;96718.75;10372510;28;20066;-60
2022/10/21 08:50:35;;;;;;;3.40;3.10;;;;;;;20.39;55.02;96720.34;10369287;28;20046;-59
2022/10/21 08:56:10;;;;;;;3.28;2.97;;;;;;;20.37;55.19;96701.72;10365328;28;20058;-59
2022/10/21 09:01:35;;;;;;;4.03;3.25;;;;;;;20.37;55.23;96701.72;10357747;28;20069;-59
2022/10/21 09:07:18;;;;;;;3.95;3.40;;;;;;;20.37;55.50;96690.91;10371651;28;20057;-59
2022/10/21 09:12:51;;;;;;;3.30;3.00;;;;;;;20.36;55.72;96686.59;10370036;28;20058;-59
2022/10/21 09:18:20;;;;;;;3.20;2.90;;;;;;;20.36;55.69;96710.94;10372884;28;20501;-59
2022/10/21 09:24:12;;;;;;;2.97;2.75;;;;;;;20.35;55.90;96715.56;10372747;28;20068;-59
2022/10/21 09:29:46;;;;;;;3.00;2.70;;;;;;;20.34;56.07;96689.63;10364738;28;20074;-59
2022/10/21 09:35:21;;;;;;;2.95;2.72;;;;;;;20.35;56.13;96699.34;10370815;28;20489;-58
2022/10/21 09:40:40;;;;;;;3.03;2.72;;;;;;;20.34;56.29;96697.75;10373461;28;20094;-60
2022/10/21 09:45:59;;;;;;;3.28;2.97;;;;;;;20.33;56.44;96671.81;10371705;28;20108;-60
2022/10/21 09:51:23;;;;;;;3.17;2.70;;;;;;;20.34;56.57;96678.03;10365243;28;20065;-60
2022/10/21 09:56:45;;;;;;;3.05;2.70;;;;;;;20.33;56.67;96696.19;10369004;28;20064;-59
2022/10/21 10:02:07;;;;;;;3.22;2.55;;;;;;;20.33;56.82;96714.34;10375234;28;20058;-60
2022/10/21 10:07:27;;;;;;;2.55;2.35;;;;;;;20.33;57.04;96706.22;10374241;28;20077;-59
2022/10/21 10:12:55;;;;;;;6.72;4.15;;;;;;;20.26;53.49;96700.53;10352875;28;20058;-61
2022/10/21 10:18:22;;;;;;;4.90;3.10;;;;;;;20.24;54.96;96692.75;10379896;28;20413;-59
2022/10/21 10:24:00;;;;;;;3.38;2.97;;;;;;;20.26;55.52;96690.50;10373402;28;20057;-58
2022/10/21 10:29:24;;;;;;;3.13;2.83;;;;;;;20.27;55.96;96675.88;10371684;28;20050;-57
2022/10/21 10:34:55;;;;;;;3.40;3.10;;;;;;;20.29;56.16;96678.25;10356915;28;20054;-58
2022/10/21 10:40:30;;;;;;;3.00;2.80;;;;;;;20.28;56.57;96692.88;10373150;28;20057;-60
2022/10/21 10:45:55;;;;;;;8.68;5.85;;;;;;;20.13;50.73;96699.66;10367891;28;20058;-57
2022/10/21 10:51:28;;;;;;;6.68;5.60;;;;;;;19.95;48.60;96697.13;10417495;28;20889;-56
2022/10/21 10:57:00;;;;;;;8.27;5.90;;;;;;;19.87;47.87;96691.75;10432873;28;20049;-59
2022/10/21 11:02:50;;;;;;;6.78;6.10;;;;;;;19.91;50.32;96687.28;10403237;28;20523;-58
2022/10/21 11:08:15;;;;;;;7.22;4.68;;;;;;;19.99;51.73;96691.03;10421603;28;20053;-59
2022/10/21 11:13:37;;;;;;;5.57;3.92;;;;;;;20.03;52.43;96681.97;10402236;28;20297;-57
2022/10/21 11:19:07;;;;;;;5.90;3.70;;;;;;;20.07;53.13;96679.34;10417522;28;20053;-57
2022/10/21 11:24:51;;;;;;;4.95;3.97;;;;;;;20.10;53.84;96673.31;10403283;28;20041;-57
2022/10/21 11:30:18;;;;;;;15.63;8.50;;;;;;;20.11;54.78;96682.97;10403101;28;20057;-57
2022/10/21 11:35:37;;;;;;;9.85;5.28;;;;;;;20.13;55.19;96683.44;10403537;28;20046;-60
2022/10/21 11:41:24;;;;;;;6.10;4.82;;;;;;;20.13;55.74;96672.63;10400568;28;20053;-58
2022/10/21 11:47:04;;;;;;;6.43;4.35;;;;;;;20.14;56.05;96674.22;10422327;28;20076;-57
2022/10/21 11:53:13;;;;;;;8.80;4.72;;;;;;;20.15;56.87;96667.69;10415426;28;20049;-59
2022/10/21 11:58:38;;;;;;;6.97;5.80;;;;;;;20.16;57.24;96677.38;10358734;28;20061;-56
2022/10/21 12:04:06;;;;;;;8.52;5.43;;;;;;;20.14;57.40;96666.88;10435323;28;20041;-59
2022/10/21 12:09:27;;;;;;;9.40;5.57;;;;;;;20.15;57.75;96667.69;10425484;28;20061;-60
2022/10/21 12:14:58;;;;;;;8.30;5.38;;;;;;;20.17;58.48;96697.91;10420008;28;20068;-59
2022/10/21 12:20:24;;;;;;;10.43;6.38;;;;;;;20.18;58.49;96706.81;10413917;28;20057;-59
2022/10/21 12:26:05;;;;;;;21.33;15.52;;;;;;;20.18;58.74;96715.72;10400740;28;20054;-59
2022/10/21 12:31:27;;;;;;;24.88;17.02;;;;;;;20.15;58.74;96716.38;10415806;28;20420;-59
2022/10/21 12:36:49;;;;;;;18.90;13.90;;;;;;;20.15;58.80;96728.00;10439921;28;20381;-58
2022/10/21 12:42:12;;;;;;;18.58;14.20;;;;;;;20.15;58.99;96727.22;10408924;28;20054;-58
2022/10/21 12:47:42;;;;;;;19.33;13.50;;;;;;;20.14;58.89;96723.69;10399471;28;20559;-58
2022/10/21 12:53:29;;;;;;;13.55;12.15;;;;;;;20.12;58.96;96701.59;10415884;28;20060;-58
2022/10/21 12:58:56;;;;;;;18.58;12.55;;;;;;;20.12;58.64;96676.47;10414249;28;20107;-58
2022/10/21 13:04:31;;;;;;;15.18;12.30;;;;;;;20.11;58.48;96674.88;10430409;28;20052;-59
2022/10/21 13:09:50;;;;;;;12.02;10.63;;;;;;;20.10;58.59;96671.38;10413379;28;20062;-59
2022/10/21 13:15:19;;;;;;;10.15;8.50;;;;;;;19.93;52.02;96661.50;10412961;28;20057;-60
2022/10/21 13:20:38;;;;;;;10.23;8.45;;;;;;;19.56;50.59;96680.16;10398219;28;20067;-59
2022/10/21 13:26:25;;;;;;;10.55;9.20;;;;;;;19.56;50.59;96680.16;10426383;28;20107;-59
2022/10/21 13:31:45;;;;;;;11.00;8.60;;;;;;;19.56;50.59;96680.16;10413054;28;20053;-58
2022/10/21 13:37:14;;;;;;;10.20;7.00;;;;;;;18.92;49.57;96656.78;10414652;28;20058;-59
2022/10/21 13:42:42;;;;;;;10.32;7.68;;;;;;;18.80;49.64;96669.34;10409125;28;20455;-59
2022/10/21 13:48:12;;;;;;;9.07;8.18;;;;;;;18.66;50.28;96675.72;10413441;28;20057;-60
2022/10/21 13:53:36;;;;;;;9.07;5.45;;;;;;;18.86;51.98;96678.88;10406920;28;20064;-59
2022/10/21 13:58:56;;;;;;;7.95;5.90;;;;;;;19.10;52.54;96651.31;10412838;28;20046;-59
2022/10/21 14:04:19;;;;;;;7.13;4.82;;;;;;;19.26;52.93;96638.84;10412131;28;20115;-61
2022/10/21 14:09:44;;;;;;;5.43;4.93;;;;;;;19.35;53.21;96655.00;10408191;28;20496;-60
2022/10/21 14:15:20;;;;;;;7.18;4.65;;;;;;;19.41;53.58;96669.91;10398030;28;20061;-53
2022/10/21 14:20:40;;;;;;;6.93;5.10;;;;;;;19.44;54.00;96673.84;10425042;28;20052;-60
2022/10/21 14:26:05;;;;;;;13.85;6.53;;;;;;;19.49;54.21;96706.09;10418916;28;20079;-60
2022/10/21 14:31:24;;;;;;;9.85;6.13;;;;;;;19.51;54.85;96682.25;10405049;28;20123;-59
2022/10/21 14:37:10;;;;;;;11.77;6.95;;;;;;;19.52;55.52;96659.50;10418444;28;20061;-58
2022/10/21 14:42:31;;;;;;;11.07;5.90;;;;;;;19.54;55.82;96674.28;10416365;28;20489;-59
2022/10/21 14:48:05;;;;;;;11.05;6.22;;;;;;;19.56;56.04;96663.13;10444037;28;20049;-60
2022/10/21 14:53:25;;;;;;;11.02;6.50;;;;;;;19.56;56.30;96668.53;10432638;28;20060;-60
2022/10/21 14:58:50;;;;;;;10.68;6.50;;;;;;;19.59;56.69;96642.78;10418907;28;20064;-57
2022/10/21 15:04:42;;;;;;;12.23;6.30;;;;;;;19.58;56.86;96622.28;10427326;28;20562;-62
2022/10/21 15:10:02;;;;;;;11.50;6.07;;;;;;;19.59;57.14;96619.25;10409860;28;20393;-59
2022/10/21 15:15:39;;;;;;;10.32;5.88;;;;;;;19.60;57.14;96615.44;10431177;28;20050;-61
2022/10/21 15:21:00;;;;;;;9.48;5.95;;;;;;;19.60;57.30;96623.56;10416418;28;20084;-60
2022/10/21 15:26:31;;;;;;;9.63;5.97;;;;;;;19.60;57.55;96622.75;10416480;28;20083;-59
2022/10/21 15:31:52;;;;;;;11.32;5.85;;;;;;;19.61;57.80;96632.44;10438165;28;20131;-60
2022/10/21 15:37:11;;;;;;;9.70;7.03;;;;;;;19.59;55.64;96626.59;10412298;28;20053;-60
2022/10/21 15:42:30;;;;;;;10.45;7.97;;;;;;;19.50;52.82;96623.91;10416850;28;20046;-60
2022/10/21 15:47:51;;;;;;;9.50;7.97;;;;;;;19.37;51.96;96617.66;10418206;28;20100;-57
2022/10/21 15:53:10;;;;;;;11.40;7.70;;;;;;;19.30;51.65;96614.66;10406107;28;20057;-59
2022/10/21 15:58:30;;;;;;;9.50;6.90;;;;;;;19.34;52.88;96629.88;10412384;28;20045;-60
2022/10/21 16:03:50;;;;;;;8.65;6.05;;;;;;;19.40;53.69;96627.00;10422004;28;20065;-60
2022/10/21 16:09:09;;;;;;;8.25;6.10;;;;;;;19.43;54.13;96629.06;10416053;28;20057;-60
2022/10/21 16:14:29;;;;;;;8.63;5.68;;;;;;;19.44;54.51;96617.91;10416143;28;20425;-60
2022/10/21 16:19:48;;;;;;;7.13;5.80;;;;;;;19.45;54.86;96624.13;10436874;28;20057;-60
2022/10/21 16:25:08;;;;;;;8.15;5.72;;;;;;;19.46;55.28;96618.38;10428864;28;20114;-60
2022/10/21 16:30:32;;;;;;;6.90;5.68;;;;;;;19.47;55.38;96616.47;10415679;28;20077;-60
2022/10/21 16:35:52;;;;;;;8.20;5.57;;;;;;;19.46;55.49;96621.06;10415424;28;20131;-59
2022/10/21 16:41:17;;;;;;;6.47;5.40;;;;;;;19.47;55.66;96619.97;10415175;28;20492;-60
2022/10/21 16:46:42;;;;;;;7.88;5.60;;;;;;;19.48;55.63;96640.47;10421461;28;20564;-60
2022/10/21 16:52:01;;;;;;;7.30;5.85;;;;;;;19.46;55.94;96664.31;10412751;28;20057;-59
2022/10/21 16:57:21;;;;;;;6.50;5.25;;;;;;;19.46;55.98;96661.59;10414742;28;20394;-60
2022/10/21 17:02:41;;;;;;;5.47;4.90;;;;;;;19.45;56.08;96660.03;10429105;28;20420;-60
2022/10/21 17:08:00;;;;;;;6.18;5.18;;;;;;;19.47;56.29;96657.78;10399598;28;20049;-59
2022/10/21 17:13:20;;;;;;;6.32;5.28;;;;;;;19.46;56.26;96685.13;10413346;28;20515;-60
2022/10/21 17:18:40;;;;;;;6.80;4.90;;;;;;;19.46;56.36;96702.13;10418477;28;20092;-60
2022/10/21 17:24:01;;;;;;;6.28;5.00;;;;;;;19.44;56.48;96682.75;10406606;28;20061;-60
2022/10/21 17:29:20;;;;;;;6.03;5.10;;;;;;;19.46;56.48;96690.53;10414338;28;20050;-59
2022/10/21 17:34:40;;;;;;;5.82;4.82;;;;;;;19.46;56.54;96707.53;10413406;28;20053;-60
2022/10/21 17:39:59;;;;;;;5.72;4.75;;;;;;;19.45;56.59;96705.97;10412538;28;20053;-60
2022/10/21 17:45:20;;;;;;;5.45;4.80;;;;;;;19.45;56.67;96705.97;10426075;28;20058;-60
2022/10/21 17:50:39;;;;;;;5.20;4.70;;;;;;;19.44;56.66;96712.47;10426025;28;20053;-60
2022/10/21 17:56:05;;;;;;;5.20;4.70;;;;;;;19.45;56.73;96715.97;10416891;28;20062;-60
2022/10/21 18:01:24;;;;;;;5.22;4.72;;;;;;;19.45;56.81;96715.97;10423495;28;20053;-60
2022/10/21 18:06:44;;;;;;;5.57;4.78;;;;;;;19.42;56.77;96703.91;10420703;28;20061;-60
2022/10/21 18:12:08;;;;;;;5.20;4.70;;;;;;;19.44;56.83;96715.16;10420064;28;20053;-60
2022/10/21 18:17:27;;;;;;;5.13;4.65;;;;;;;19.43;56.83;96688.50;10421872;28;20119;-59
2022/10/21 18:22:47;;;;;;;5.80;4.30;;;;;;;19.42;56.81;96693.09;10420633;28;20057;-60
2022/10/21 18:28:07;;;;;;;5.72;4.50;;;;;;;19.41;56.90;96678.00;10425277;28;20140;-59
2022/10/21 18:33:27;;;;;;;5.38;4.40;;;;;;;19.43;56.92;96669.59;10420126;28;20060;-60
2022/10/21 18:38:46;;;;;;;5.10;4.60;;;;;;;19.41;57.06;96666.44;10409586;28;20057;-60
2022/10/21 18:44:08;;;;;;;4.90;4.10;;;;;;;19.41;57.01;96655.63;10427676;28;20123;-60
2022/10/21 18:49:27;;;;;;;4.70;4.20;;;;;;;19.41;57.13;96650.22;10419812;28;20057;-60
2022/10/21 18:54:47;;;;;;;6.03;4.10;;;;;;;19.40;57.20;96644.00;10407015;28;20068;-60
2022/10/21 19:00:06;;;;;;;5.35;4.07;;;;;;;19.40;57.25;96644.00;10421216;28;20432;-60
2022/10/21 19:05:26;;;;;;;4.93;4.43;;;;;;;19.40;57.21;96649.41;10418876;28;20069;-59
2022/10/21 19:10:46;;;;;;;4.57;4.18;;;;;;;19.39;57.30;96650.53;10418569;28;20064;-59
2022/10/21 19:16:06;;;;;;;4.45;4.05;;;;;;;19.38;57.27;96659.75;10425913;28;20049;-59
2022/10/21 19:21:26;;;;;;;4.47;4.07;;;;;;;19.39;57.23;96655.16;10403389;28;20061;-60
2022/10/21 19:26:52;;;;;;;4.63;4.00;;;;;;;19.37;57.25;96652.78;10418047;28;20050;-59
2022/10/21 19:32:12;;;;;;;4.45;4.05;;;;;;;19.38;57.35;96645.44;10412304;28;20065;-60
2022/10/21 19:37:32;;;;;;;4.13;3.78;;;;;;;19.37;57.39;96652.78;10431407;28;20405;-60
2022/10/21 19:42:52;;;;;;;4.30;3.90;;;;;;;19.36;57.31;96656.56;10419893;28;20060;-59
2022/10/21 19:48:14;;;;;;;4.72;4.15;;;;;;;19.36;57.41;96675.47;10417784;28;20061;-60
2022/10/21 19:53:34;;;;;;;5.05;4.25;;;;;;;19.35;57.28;96685.50;10417007;28;20132;-61
2022/10/21 19:58:53;;;;;;;4.57;4.00;;;;;;;19.35;57.40;96696.31;10422776;28;20084;-60
2022/10/21 20:04:13;;;;;;;4.05;3.65;;;;;;;19.35;57.20;96695.53;10416871;28;20064;-60
2022/10/21 20:09:32;;;;;;;4.30;3.90;;;;;;;19.34;57.48;96700.13;10402997;28;20053;-59
2022/10/21 20:14:51;;;;;;;4.20;3.80;;;;;;;19.34;57.33;96691.22;10428971;28;20061;-60
2022/10/21 20:20:11;;;;;;;3.85;3.55;;;;;;;19.34;57.33;96664.22;10415156;28;20060;-58
2022/10/21 20:25:30;;;;;;;4.22;3.63;;;;;;;19.33;57.39;96666.13;10416364;28;20077;-60
2022/10/21 20:31:12;;;;;;;4.10;3.70;;;;;;;19.33;57.45;96670.75;10431251;28;20060;-59
2022/10/21 20:36:32;;;;;;;4.45;3.75;;;;;;;19.33;57.38;96666.13;10414940;28;20500;-60
2022/10/21 20:41:51;;;;;;;4.88;3.97;;;;;;;19.32;57.39;96661.06;10436077;28;20420;-59
2022/10/21 20:47:11;;;;;;;4.10;3.70;;;;;;;19.31;57.36;96660.25;10417288;28;20061;-60
2022/10/21 20:52:30;;;;;;;4.38;4.00;;;;;;;19.30;57.39;96668.69;10414615;28;20097;-57
2022/10/21 20:57:49;;;;;;;4.45;4.00;;;;;;;19.31;57.38;96662.97;10417176;28;20065;-60
2022/10/21 21:03:08;;;;;;;4.13;3.72;;;;;;;19.30;57.39;96660.59;10414330;28;20054;-59
2022/10/21 21:08:28;;;;;;;4.70;3.58;;;;;;;19.29;57.76;96657.09;10414013;28;20073;-58
2022/10/21 21:13:47;;;;;;;4.35;3.95;;;;;;;19.30;57.46;96660.59;10418488;28;20054;-60
2022/10/21 21:19:07;;;;;;;4.60;4.20;;;;;;;19.30;57.47;96655.19;10413893;28;20064;-60
2022/10/21 21:24:27;;;;;;;3.83;3.53;;;;;;;19.29;57.55;96649.00;10398494;28;20483;-60
2022/10/21 21:29:46;;;;;;;4.00;3.60;;;;;;;19.27;57.48;96656.63;10427374;28;20053;-60
2022/10/21 21:35:06;;;;;;;4.20;3.80;;;;;;;19.28;57.53;96654.72;10415043;28;20064;-59
2022/10/21 21:40:25;;;;;;;4.15;3.75;;;;;;;19.27;57.47;96651.22;10427378;28;20127;-60
2022/10/21 21:45:45;;;;;;;3.80;3.40;;;;;;;19.28;57.50;96662.81;10423017;28;20066;-58
2022/10/21 21:51:10;;;;;;;4.03;3.63;;;;;;;19.26;57.47;96663.13;10406403;28;20446;-60
2022/10/21 21:56:30;;;;;;;4.10;3.63;;;;;;;19.27;57.49;96663.94;10420705;28;20057;-60
2022/10/21 22:01:49;;;;;;;4.03;3.67;;;;;;;19.26;57.63;96673.16;10413147;28;20069;-60
2022/10/21 22:07:08;;;;;;;3.85;3.55;;;;;;;19.24;57.56;96668.06;10412957;28;20064;-60
2022/10/21 22:12:27;;;;;;;4.13;3.65;;;;;;;19.25;57.54;96649.97;10413897;28;20091;-60
2022/10/21 22:17:47;;;;;;;3.78;3.40;;;;;;;19.24;57.50;96657.28;10412758;28;20057;-60
2022/10/21 22:23:06;;;;;;;3.75;3.42;;;;;;;19.24;57.57;96651.09;10412521;28;20107;-60
2022/10/21 22:28:26;;;;;;;3.53;3.22;;;;;;;19.24;57.40;96651.09;10411963;28;20069;-60
2022/10/21 22:33:45;;;;;;;4.22;3.70;;;;;;;19.22;57.56;96647.91;10412808;28;20060;-60
2022/10/21 22:39:05;;;;;;;3.90;3.60;;;;;;;19.22;57.58;96637.91;10410596;28;20072;-60
2022/10/21 22:44:24;;;;;;;3.80;3.40;;;;;;;19.23;57.61;96633.28;10417895;28;20057;-60
2022/10/21 22:49:44;;;;;;;3.70;3.40;;;;;;;19.22;57.68;96619.00;10419292;28;20570;-60
2022/10/21 22:55:04;;;;;;;3.53;3.22;;;;;;;19.20;57.62;96613.13;10406503;28;20061;-60
2022/10/21 23:00:23;;;;;;;4.53;3.50;;;;;;;19.21;57.60;96609.31;10419366;28;20050;-60
2022/10/21 23:05:42;;;;;;;3.63;3.30;;;;;;;19.20;57.71;96612.34;10418989;28;20058;-60
2022/10/21 23:11:02;;;;;;;3.50;3.20;;;;;;;19.21;57.60;96603.13;10417902;28;20080;-60
2022/10/21 23:16:21;;;;;;;3.55;3.25;;;;;;;19.20;57.59;96604.25;10418766;28;20064;-60
2022/10/21 23:21:41;;;;;;;3.53;3.22;;;;;;;19.20;57.57;96590.75;10419524;28;20056;-59
2022/10/21 23:27:00;;;;;;;3.58;3.22;;;;;;;19.20;57.60;96590.75;10421523;28;20501;-59
2022/10/21 23:32:20;;;;;;;3.63;3.33;;;;;;;19.18;57.63;96582.97;10431590;28;20058;-60
2022/10/21 23:37:40;;;;;;;3.90;3.35;;;;;;;19.17;57.67;96570.59;10422151;28;20111;-60
2022/10/21 23:42:59;;;;;;;3.83;3.20;;;;;;;19.17;57.59;96571.38;10417074;28;20056;-60
2022/10/21 23:48:18;;;;;;;3.17;2.92;;;;;;;19.18;57.72;96577.56;10417278;28;20053;-61
2022/10/21 23:53:37;;;;;;;4.50;3.30;;;;;;;19.16;57.62;96587.91;10419006;28;20050;-60
2022/10/21 23:58:59;;;;;;;3.38;3.00;;;;;;;19.16;57.73;96575.19;10415889;28;20497;-60
